Time;durP1;ratioP1;P1;durP2;ratioP2;P2;SDS_P1;SDS_P2;PMS_P1;PMS_P2;Temp;Humidity;BMP_temperature;BMP_pressure;BME280_temperature;BME280_humidity;BME280_pressure;Samples;Min_cycle;Max_cycle;Signal;HPM_P1;HPM_P2
2022/08/17 00:01:28;;;;;;;;;;;19.20;99.90;;;;;;6189421;23;19987;-74
2022/08/17 00:03:54;;;;;;;;;;;19.20;99.90;;;;;;6187775;23;19970;-71
2022/08/17 00:06:26;;;;;;;;;;;19.20;99.90;;;;;;6188814;23;19920;-71
2022/08/17 00:08:53;;;;;;;;;;;19.20;99.90;;;;;;6164490;23;19920;-72
2022/08/17 00:11:21;;;;;;;;;;;19.30;99.90;;;;;;6165061;23;19938;-71
2022/08/17 00:13:48;;;;;;;;;;;19.30;99.90;;;;;;6165111;23;20286;-73
2022/08/17 00:16:19;;;;;;;;;;;19.30;99.90;;;;;;6164738;23;20283;-74
2022/08/17 00:18:46;;;;;;;;;;;19.30;99.90;;;;;;6189440;23;19927;-72
2022/08/17 00:21:12;;;;;;;;;;;19.20;99.90;;;;;;6189325;23;20287;-72
2022/08/17 00:23:40;;;;;;;;;;;19.20;99.90;;;;;;6216291;23;19963;-72
2022/08/17 00:26:05;;;;;;;;;;;19.20;99.90;;;;;;6163479;23;20327;-72
2022/08/17 00:28:31;;;;;;;;;;;19.20;99.90;;;;;;6189840;23;19920;-70
2022/08/17 00:30:57;;;;;;;;;;;19.20;99.90;;;;;;6189427;23;19990;-72
2022/08/17 00:33:25;;;;;;;;;;;19.20;99.90;;;;;;6216364;23;19994;-71
2022/08/17 00:35:51;;;;;;;;;;;19.10;99.90;;;;;;6189650;23;19926;-70
2022/08/17 00:38:17;;;;;;;;;;;19.10;99.90;;;;;;6189342;23;19959;-72
2022/08/17 00:40:53;;;;;;;;;;;19.00;99.90;;;;;;6189471;23;19946;-73
2022/08/17 00:43:21;;;;;;;;;;;19.10;99.90;;;;;;6190081;23;19920;-72
2022/08/17 00:45:46;;;;;;;;;;;19.10;99.90;;;;;;6189701;23;19999;-71
2022/08/17 00:48:12;;;;;;;;;;;19.10;99.90;;;;;;6189944;23;19971;-74
2022/08/17 00:50:40;;;;;;;;;;;19.10;99.90;;;;;;6192594;23;19919;-70
2022/08/17 00:53:06;;;;;;;;;;;19.00;99.90;;;;;;6219749;23;19927;-71
2022/08/17 00:55:32;;;;;;;;;;;19.00;99.90;;;;;;6194079;23;19919;-71
2022/08/17 00:58:00;;;;;;;;;;;19.00;99.90;;;;;;6218974;23;19967;-72
2022/08/17 01:00:27;;;;;;;;;;;19.00;99.90;;;;;;6219356;23;19963;-71
2022/08/17 01:02:56;;;;;;;;;;;19.00;99.90;;;;;;6219675;23;20323;-73
2022/08/17 01:05:24;;;;;;;;;;;19.00;99.90;;;;;;6219505;23;19919;-73
2022/08/17 01:07:50;;;;;;;;;;;19.00;99.90;;;;;;6221094;23;19946;-71
2022/08/17 01:10:17;;;;;;;;;;;18.90;99.90;;;;;;6196344;23;20285;-73
2022/08/17 01:12:42;;;;;;;;;;;18.90;99.90;;;;;;6221487;23;19970;-70
2022/08/17 01:15:08;;;;;;;;;;;18.90;99.90;;;;;;6221373;23;19923;-71
2022/08/17 01:17:33;;;;;;;;;;;18.90;99.90;;;;;;6221768;23;20337;-72
2022/08/17 01:19:59;;;;;;;;;;;18.90;99.90;;;;;;6248289;23;20378;-75
2022/08/17 01:22:25;;;;;;;;;;;18.90;99.90;;;;;;6196293;23;19946;-70
2022/08/17 01:24:59;;;;;;;;;;;18.90;99.90;;;;;;6196124;22;20327;-72
2022/08/17 01:27:26;;;;;;;;;;;18.80;99.90;;;;;;6221000;23;19926;-73
2022/08/17 01:29:58;;;;;;;;;;;18.80;99.90;;;;;;6220832;23;19926;-74
2022/08/17 01:32:24;;;;;;;;;;;18.70;99.90;;;;;;6219483;23;19995;-71
2022/08/17 01:34:51;;;;;;;;;;;18.70;99.90;;;;;;6195348;22;19919;-72
2022/08/17 01:37:18;;;;;;;;;;;18.80;99.90;;;;;;6221116;23;19999;-71
2022/08/17 01:39:54;;;;;;;;;;;18.70;99.90;;;;;;6220047;23;19974;-75
2022/08/17 01:42:20;;;;;;;;;;;18.70;99.90;;;;;;6221391;23;20334;-73
2022/08/17 01:44:46;;;;;;;;;;;18.70;99.90;;;;;;6247874;22;19920;-72
2022/08/17 01:47:11;;;;;;;;;;;18.70;99.90;;;;;;6247832;23;19951;-74
2022/08/17 01:49:37;;;;;;;;;;;18.60;99.90;;;;;;6196084;23;20292;-73
2022/08/17 01:52:07;;;;;;;;;;;18.50;99.90;;;;;;6219658;23;19919;-72
2022/08/17 01:54:34;;;;;;;;;;;18.50;99.90;;;;;;6220617;22;20322;-71
2022/08/17 01:56:59;;;;;;;;;;;18.50;99.90;;;;;;6220981;23;20300;-73
2022/08/17 01:59:25;;;;;;;;;;;18.50;99.90;;;;;;6195943;23;19955;-73
2022/08/17 02:01:51;;;;;;;;;;;18.50;99.90;;;;;;6220851;23;19985;-70
2022/08/17 02:04:17;;;;;;;;;;;18.50;99.90;;;;;;6195902;23;19919;-74
2022/08/17 02:06:43;;;;;;;;;;;18.50;99.90;;;;;;6220851;23;20002;-73
2022/08/17 02:09:09;;;;;;;;;;;18.40;99.90;;;;;;6195729;23;19947;-74
2022/08/17 02:11:37;;;;;;;;;;;18.40;99.90;;;;;;6220655;23;20415;-74
2022/08/17 02:14:03;;;;;;;;;;;18.40;99.90;;;;;;6220741;23;19927;-75
2022/08/17 02:16:34;;;;;;;;;;;18.30;99.90;;;;;;6220905;23;20334;-70
2022/08/17 02:19:00;;;;;;;;;;;18.30;99.90;;;;;;6247162;23;19950;-73
2022/08/17 02:21:26;;;;;;;;;;;18.20;99.90;;;;;;6220562;23;19919;-72
2022/08/17 02:23:53;;;;;;;;;;;18.20;99.90;;;;;;6195511;23;20242;-73
2022/08/17 02:26:19;;;;;;;;;;;18.10;99.90;;;;;;6195026;23;19951;-72
2022/08/17 02:28:45;;;;;;;;;;;18.10;99.90;;;;;;6220061;23;19966;-74
2022/08/17 02:31:11;;;;;;;;;;;18.00;99.90;;;;;;6195614;23;19919;-71
2022/08/17 02:33:38;;;;;;;;;;;17.90;99.90;;;;;;6220232;23;19920;-72
2022/08/17 02:36:03;;;;;;;;;;;18.00;99.90;;;;;;6195653;23;19926;-72
2022/08/17 02:38:30;;;;;;;;;;;17.90;99.90;;;;;;6247491;23;19919;-72
2022/08/17 02:40:59;;;;;;;;;;;17.90;99.90;;;;;;6195525;23;20331;-73
2022/08/17 02:43:26;;;;;;;;;;;17.90;99.90;;;;;;6220548;23;19934;-73
2022/08/17 02:45:52;;;;;;;;;;;17.80;99.90;;;;;;6220986;23;19949;-72
2022/08/17 02:48:17;;;;;;;;;;;17.80;99.90;;;;;;6195362;23;19977;-71
2022/08/17 02:50:43;;;;;;;;;;;17.70;99.90;;;;;;6247304;23;19926;-73
2022/08/17 02:53:08;;;;;;;;;;;17.70;99.90;;;;;;6220454;23;19924;-71
2022/08/17 02:55:35;;;;;;;;;;;17.60;99.90;;;;;;6247033;22;19927;-71
2022/08/17 02:58:02;;;;;;;;;;;17.60;99.90;;;;;;6195917;23;19924;-74
2022/08/17 03:00:32;;;;;;;;;;;17.60;99.90;;;;;;6247009;23;20024;-72
2022/08/17 03:02:58;;;;;;;;;;;17.50;99.90;;;;;;6220182;23;20449;-70
2022/08/17 03:05:25;;;;;;;;;;;17.50;99.90;;;;;;6194603;23;19920;-74
2022/08/17 03:07:51;;;;;;;;;;;17.40;99.90;;;;;;6220285;23;19955;-72
2022/08/17 03:10:18;;;;;;;;;;;17.40;99.90;;;;;;6194666;23;19920;-71
2022/08/17 03:12:44;;;;;;;;;;;17.40;99.90;;;;;;6220357;23;19994;-72
2022/08/17 03:15:18;;;;;;;;;;;17.50;99.90;;;;;;6195047;23;19958;-71
2022/08/17 03:17:43;;;;;;;;;;;17.40;99.90;;;;;;6220568;23;19992;-73
2022/08/17 03:20:09;;;;;;;;;;;17.40;99.90;;;;;;6194776;23;20002;-72
2022/08/17 03:22:40;;;;;;;;;;;17.40;99.90;;;;;;6218253;23;19919;-71
2022/08/17 03:25:06;;;;;;;;;;;17.40;99.90;;;;;;6219916;22;20327;-72
2022/08/17 03:27:31;;;;;;;;;;;17.40;99.90;;;;;;6220257;23;20290;-73
2022/08/17 03:29:57;;;;;;;;;;;17.40;99.90;;;;;;6219891;23;19923;-73
2022/08/17 03:32:22;;;;;;;;;;;17.30;99.90;;;;;;6219081;23;19955;-73
2022/08/17 03:34:48;;;;;;;;;;;17.30;99.90;;;;;;6220352;22;19947;-71
2022/08/17 03:37:14;;;;;;;;;;;17.30;99.90;;;;;;6219849;23;20246;-73
2022/08/17 03:39:39;;;;;;;;;;;17.30;99.90;;;;;;6246510;23;19920;-73
2022/08/17 03:42:06;;;;;;;;;;;17.30;99.90;;;;;;6219606;23;19986;-71
2022/08/17 03:44:32;;;;;;;;;;;17.40;99.90;;;;;;6220083;23;19920;-73
2022/08/17 03:57:54;;;;;;;;;;;17.40;99.90;;;;;;6220437;23;19924;-74
2022/08/17 04:00:19;;;;;;;;;;;17.50;99.90;;;;;;6219950;23;19919;-73
2022/08/17 04:02:45;;;;;;;;;;;17.50;99.90;;;;;;6170281;23;19926;-75
2022/08/17 04:05:11;;;;;;;;;;;17.50;99.90;;;;;;6246556;22;20388;-71
2022/08/17 04:07:36;;;;;;;;;;;17.50;99.90;;;;;;6219248;23;19927;-71
2022/08/17 04:10:02;;;;;;;;;;;17.40;99.90;;;;;;6219458;23;19977;-72
2022/08/17 04:12:41;;;;;;;;;;;17.50;99.90;;;;;;6219982;23;20354;-71
2022/08/17 04:15:07;;;;;;;;;;;17.50;99.90;;;;;;6220105;22;19926;-71
2022/08/17 04:17:32;;;;;;;;;;;17.50;99.90;;;;;;6219509;23;19920;-74
2022/08/17 04:19:58;;;;;;;;;;;17.50;99.90;;;;;;6219975;23;19927;-72
2022/08/17 04:22:23;;;;;;;;;;;17.50;99.90;;;;;;6219992;23;19920;-71
2022/08/17 04:24:49;;;;;;;;;;;17.50;99.90;;;;;;6194641;22;20334;-72
2022/08/17 04:27:15;;;;;;;;;;;17.60;99.90;;;;;;6194192;23;19920;-73
2022/08/17 04:29:40;;;;;;;;;;;17.60;99.90;;;;;;6219824;23;19920;-73
2022/08/17 04:32:06;;;;;;;;;;;17.60;99.90;;;;;;6194849;23;19926;-70
2022/08/17 04:34:32;;;;;;;;;;;17.60;99.90;;;;;;6219442;23;19927;-71
2022/08/17 04:36:58;;;;;;;;;;;17.70;99.90;;;;;;6193682;23;19931;-71
2022/08/17 04:39:25;;;;;;;;;;;17.70;99.90;;;;;;6219905;23;19920;-73
2022/08/17 04:42:05;;;;;;;;;;;17.70;99.90;;;;;;6221445;23;19926;-73
2022/08/17 04:44:32;;;;;;;;;;;17.70;99.90;;;;;;6248561;23;20228;-71
2022/08/17 04:46:57;;;;;;;;;;;17.60;99.90;;;;;;6248691;22;20018;-73
2022/08/17 04:49:23;;;;;;;;;;;17.60;99.90;;;;;;6196652;23;20285;-72
2022/08/17 04:51:49;;;;;;;;;;;17.60;99.90;;;;;;6196355;23;19919;-71
2022/08/17 04:54:19;;;;;;;;;;;17.70;99.90;;;;;;6196576;23;19919;-73
2022/08/17 04:56:44;;;;;;;;;;;17.70;99.90;;;;;;6196435;23;20006;-70
2022/08/17 04:59:11;;;;;;;;;;;17.70;99.90;;;;;;6221642;23;20330;-72
2022/08/17 05:01:38;;;;;;;;;;;17.70;99.90;;;;;;6196510;23;19924;-73
2022/08/17 05:04:08;;;;;;;;;;;17.70;99.90;;;;;;6221599;23;19990;-73
2022/08/17 05:06:34;;;;;;;;;;;17.70;99.90;;;;;;6221461;23;19924;-73
2022/08/17 05:08:59;;;;;;;;;;;17.80;99.90;;;;;;6247801;23;20236;-73
2022/08/17 05:11:26;;;;;;;;;;;17.80;99.90;;;;;;6196415;23;19919;-74
2022/08/17 05:13:52;;;;;;;;;;;17.90;99.90;;;;;;6221361;23;19920;-74
2022/08/17 05:16:19;;;;;;;;;;;18.00;99.90;;;;;;6220911;23;19923;-72
2022/08/17 05:18:45;;;;;;;;;;;18.00;99.90;;;;;;6221497;23;19927;-72
2022/08/17 05:21:11;;;;;;;;;;;18.10;99.90;;;;;;6221309;23;19920;-70
2022/08/17 05:23:36;;;;;;;;;;;18.10;99.90;;;;;;6221279;23;19920;-71
2022/08/17 05:26:02;;;;;;;;;;;18.10;99.90;;;;;;6196266;23;19955;-73
2022/08/17 05:28:28;;;;;;;;;;;18.20;99.90;;;;;;6221172;23;20330;-73
2022/08/17 05:30:55;;;;;;;;;;;18.20;99.90;;;;;;6221253;23;19920;-72
2022/08/17 05:33:22;;;;;;;;;;;18.30;99.90;;;;;;6221324;23;20334;-71
2022/08/17 05:35:48;;;;;;;;;;;18.30;99.90;;;;;;6196003;23;19924;-73
2022/08/17 05:38:15;;;;;;;;;;;18.40;99.90;;;;;;6221305;23;20250;-74
2022/08/17 05:40:41;;;;;;;;;;;18.40;99.90;;;;;;6196178;23;19919;-72
2022/08/17 05:43:08;;;;;;;;;;;18.50;99.90;;;;;;6220792;23;19958;-76
2022/08/17 05:45:36;;;;;;;;;;;18.50;99.90;;;;;;6196147;23;19919;-75
2022/08/17 05:48:02;;;;;;;;;;;18.60;99.90;;;;;;6221996;23;19958;-74
2022/08/17 05:50:31;;;;;;;;;;;18.60;99.90;;;;;;6222960;23;20333;-76
2022/08/17 05:52:57;;;;;;;;;;;18.70;99.90;;;;;;6248556;23;19920;-76
2022/08/17 05:55:45;;;;;;;;;;;18.80;99.90;;;;;;6196135;23;20343;-75
2022/08/17 05:58:23;;;;;;;;;;;18.90;99.90;;;;;;6221356;23;19920;-73
2022/08/17 06:00:58;;;;;;;;;;;19.00;99.90;;;;;;6220962;23;19926;-76
2022/08/17 06:03:32;;;;;;;;;;;19.10;99.90;;;;;;6220494;23;19995;-74
2022/08/17 06:06:04;;;;;;;;;;;19.20;99.90;;;;;;6221065;23;19931;-75
2022/08/17 06:08:30;;;;;;;;;;;19.20;99.90;;;;;;6220450;23;19926;-74
2022/08/17 06:11:00;;;;;;;;;;;19.30;99.90;;;;;;6221143;23;19919;-75
2022/08/17 06:13:37;;;;;;;;;;;19.40;99.90;;;;;;6196068;23;20322;-74
2022/08/17 06:16:11;;;;;;;;;;;19.40;99.90;;;;;;6194701;23;19920;-78
2022/08/17 06:18:54;;;;;;;;;;;19.50;99.90;;;;;;6219360;23;20331;-75
2022/08/17 06:21:20;;;;;;;;;;;19.50;99.90;;;;;;6194947;23;19919;-76
2022/08/17 06:23:48;;;;;;;;;;;19.60;99.90;;;;;;6220209;23;19998;-76
2022/08/17 06:26:16;;;;;;;;;;;19.60;99.90;;;;;;6220389;23;19926;-75
2022/08/17 06:28:51;;;;;;;;;;;19.60;99.90;;;;;;6219990;23;19920;-75
2022/08/17 06:31:21;;;;;;;;;;;19.60;99.90;;;;;;6220470;23;19920;-75
2022/08/17 06:33:47;;;;;;;;;;;19.60;99.90;;;;;;6220307;23;19946;-74
2022/08/17 06:36:41;;;;;;;;;;;19.60;99.90;;;;;;6195615;23;19919;-75
2022/08/17 06:39:25;;;;;;;;;;;19.60;99.90;;;;;;6188486;23;20223;-75
2022/08/17 06:42:10;;;;;;;;;;;19.70;99.90;;;;;;6220624;23;20289;-73
2022/08/17 06:44:39;;;;;;;;;;;19.70;99.90;;;;;;6195482;23;19973;-76
2022/08/17 06:47:17;;;;;;;;;;;19.70;99.90;;;;;;6220532;23;19972;-74
2022/08/17 06:49:50;;;;;;;;;;;19.60;99.90;;;;;;6195822;23;19920;-74
2022/08/17 06:52:26;;;;;;;;;;;19.60;99.90;;;;;;6195072;23;19927;-75
2022/08/17 06:54:51;;;;;;;;;;;19.60;99.90;;;;;;6220409;23;19919;-74
2022/08/17 06:57:19;;;;;;;;;;;19.60;99.90;;;;;;6220378;23;19923;-74
2022/08/17 06:59:52;;;;;;;;;;;19.60;99.90;;;;;;6220523;23;20331;-75
2022/08/17 07:02:22;;;;;;;;;;;19.60;99.90;;;;;;6195986;23;19931;-77
2022/08/17 07:04:49;;;;;;;;;;;19.60;99.90;;;;;;6219819;23;19923;-78
2022/08/17 07:10:01;;;;;;;;;;;19.50;99.90;;;;;;6220128;23;19955;-77
2022/08/17 07:12:32;;;;;;;;;;;19.50;99.90;;;;;;6220165;23;19915;-77
2022/08/17 07:15:06;;;;;;;;;;;19.50;99.90;;;;;;6194901;23;19919;-78
2022/08/17 07:17:33;;;;;;;;;;;19.60;99.90;;;;;;6199293;23;19923;-77
2022/08/17 07:20:07;;;;;;;;;;;19.50;99.90;;;;;;6225818;23;19966;-78
2022/08/17 07:22:52;;;;;;;;;;;19.50;99.90;;;;;;6195883;23;19962;-77
2022/08/17 07:25:18;;;;;;;;;;;19.50;99.90;;;;;;6220480;22;19951;-78
2022/08/17 07:27:49;;;;;;;;;;;19.60;99.90;;;;;;6195330;23;19986;-77
2022/08/17 07:30:15;;;;;;;;;;;19.60;99.90;;;;;;6220854;23;19920;-78
2022/08/17 07:32:52;;;;;;;;;;;19.60;99.90;;;;;;6195343;23;20245;-77
2022/08/17 07:35:40;;;;;;;;;;;19.70;99.90;;;;;;6219996;22;19923;-80
2022/08/17 07:38:13;;;;;;;;;;;19.70;99.90;;;;;;6194861;23;19915;-77
2022/08/17 07:41:01;;;;;;;;;;;19.80;99.90;;;;;;6194545;23;20005;-79
2022/08/17 07:43:29;;;;;;;;;;;19.80;99.90;;;;;;6194730;23;19926;-79
2022/08/17 07:48:56;;;;;;;;;;;19.90;99.90;;;;;;6219853;23;19915;-77
2022/08/17 07:51:23;;;;;;;;;;;19.90;99.90;;;;;;6194568;23;19989;-77
2022/08/17 07:53:49;;;;;;;;;;;19.80;99.90;;;;;;6220035;23;19927;-76
2022/08/17 07:56:30;;;;;;;;;;;19.80;99.90;;;;;;6220563;23;19921;-77
2022/08/17 07:59:28;;;;;;;;;;;19.80;99.90;;;;;;6220101;23;19927;-75
2022/08/17 08:01:57;;;;;;;;;;;19.80;99.90;;;;;;6138526;23;20345;-77
2022/08/17 08:04:26;;;;;;;;;;;19.80;99.90;;;;;;6194686;23;19935;-76
2022/08/17 08:06:53;;;;;;;;;;;19.80;99.90;;;;;;6195000;23;19927;-77
2022/08/17 08:09:33;;;;;;;;;;;19.80;99.90;;;;;;6195924;23;20231;-76
2022/08/17 08:12:02;;;;;;;;;;;19.80;99.90;;;;;;6194760;23;19920;-77
2022/08/17 08:14:31;;;;;;;;;;;19.80;99.90;;;;;;6194225;23;19930;-78
2022/08/17 08:16:59;;;;;;;;;;;19.80;99.90;;;;;;6196619;23;19923;-77
2022/08/17 08:19:31;;;;;;;;;;;19.80;99.90;;;;;;6196953;23;19946;-78
2022/08/17 08:22:09;;;;;;;;;;;19.70;99.90;;;;;;6221480;23;19963;-77
2022/08/17 08:25:15;;;;;;;;;;;19.80;99.90;;;;;;6196796;23;19935;-80
2022/08/17 08:27:48;;;;;;;;;;;19.80;99.90;;;;;;6220740;23;19919;-73
2022/08/17 08:30:15;;;;;;;;;;;19.80;99.90;;;;;;6221890;23;19942;-73
2022/08/17 08:32:46;;;;;;;;;;;19.80;99.90;;;;;;6222024;23;20274;-73
2022/08/17 08:35:33;;;;;;;;;;;19.70;99.90;;;;;;6196176;23;19920;-72
2022/08/17 08:37:58;;;;;;;;;;;19.80;99.90;;;;;;6221067;23;19920;-73
2022/08/17 08:40:24;;;;;;;;;;;19.70;99.90;;;;;;6248261;23;19920;-72
2022/08/17 08:42:49;;;;;;;;;;;19.70;99.90;;;;;;6221292;23;19920;-73
2022/08/17 08:45:37;;;;;;;;;;;19.70;99.90;;;;;;6221513;22;19919;-72
2022/08/17 08:48:26;;;;;;;;;;;19.70;99.90;;;;;;6221739;23;19920;-71
2022/08/17 08:50:58;;;;;;;;;;;19.70;99.90;;;;;;6228956;23;19919;-71
2022/08/17 08:53:40;;;;;;;;;;;19.70;99.90;;;;;;6221504;23;19966;-69
2022/08/17 08:56:10;;;;;;;;;;;19.70;99.90;;;;;;6248341;22;19919;-75
2022/08/17 08:58:49;;;;;;;;;;;19.60;99.90;;;;;;6221621;23;20331;-70
2022/08/17 09:01:25;;;;;;;;;;;19.50;99.90;;;;;;6196566;23;19926;-73
2022/08/17 09:04:02;;;;;;;;;;;19.50;99.90;;;;;;6196705;23;19920;-73
2022/08/17 09:06:46;;;;;;;;;;;19.50;99.90;;;;;;6221415;23;19930;-73
2022/08/17 09:09:35;;;;;;;;;;;19.50;99.90;;;;;;6248337;23;19919;-73
2022/08/17 09:12:07;;;;;;;;;;;19.50;99.90;;;;;;6152757;23;19974;-73
2022/08/17 09:14:38;;;;;;;;;;;19.40;99.90;;;;;;6196737;23;19962;-72
2022/08/17 09:17:17;;;;;;;;;;;19.40;99.90;;;;;;6248317;22;19923;-74
2022/08/17 09:19:59;;;;;;;;;;;19.40;99.90;;;;;;6221409;23;19920;-73
2022/08/17 09:22:31;;;;;;;;;;;19.30;99.90;;;;;;6221333;23;20326;-72
2022/08/17 09:25:05;;;;;;;;;;;19.30;99.90;;;;;;6220164;23;19958;-72
2022/08/17 09:27:52;;;;;;;;;;;19.20;99.90;;;;;;6220719;23;20011;-72
2022/08/17 09:30:18;;;;;;;;;;;19.10;99.90;;;;;;6221366;23;19924;-72
2022/08/17 09:32:48;;;;;;;;;;;19.00;99.90;;;;;;6221642;23;20344;-70
2022/08/17 09:35:15;;;;;;;;;;;19.00;99.90;;;;;;6221396;23;19926;-73
2022/08/17 09:41:10;;;;;;;;;;;18.80;99.90;;;;;;6221001;23;19923;-74
2022/08/17 09:43:47;;;;;;;;;;;18.50;99.90;;;;;;6221266;23;19919;-74
2022/08/17 09:46:20;;;;;;;;;;;18.40;99.90;;;;;;6220726;23;19919;-74
2022/08/17 09:48:54;;;;;;;;;;;18.30;99.90;;;;;;6217597;23;19916;-73
2022/08/17 09:51:26;;;;;;;;;;;18.30;99.90;;;;;;6209912;23;19919;-75
2022/08/17 09:53:51;;;;;;;;;;;18.20;99.90;;;;;;6166488;23;19919;-76
2022/08/17 09:56:49;;;;;;;;;;;18.30;99.90;;;;;;6190890;23;20297;-75
2022/08/17 09:59:47;;;;;;;;;;;18.20;99.90;;;;;;6217441;23;20262;-75
2022/08/17 10:05:24;;;;;;;;;;;18.10;99.90;;;;;;6191056;23;19927;-78
2022/08/17 10:07:59;;;;;;;;;;;18.10;99.90;;;;;;6166757;23;19927;-72
2022/08/17 10:10:31;;;;;;;;;;;18.10;99.90;;;;;;6217241;23;19920;-74
2022/08/17 10:12:57;;;;;;;;;;;18.00;99.90;;;;;;6190891;23;19923;-73
2022/08/17 10:15:35;;;;;;;;;;;18.00;99.90;;;;;;6190361;23;19920;-72
2022/08/17 10:18:15;;;;;;;;;;;18.00;99.90;;;;;;6190724;23;19920;-74
2022/08/17 10:26:36;;;;;;;;;;;17.90;99.90;;;;;;6190707;23;19927;-72
2022/08/17 10:29:08;;;;;;;;;;;18.00;99.90;;;;;;6190697;23;19920;-73
2022/08/17 10:31:38;;;;;;;;;;;18.00;99.90;;;;;;6190730;23;20331;-74
2022/08/17 10:34:27;;;;;;;;;;;17.90;99.90;;;;;;6216899;23;19920;-71
2022/08/17 10:36:56;;;;;;;;;;;17.90;99.90;;;;;;6170709;23;19959;-72
2022/08/17 10:39:29;;;;;;;;;;;17.90;99.90;;;;;;6165729;23;19920;-71
2022/08/17 10:41:57;;;;;;;;;;;17.80;99.90;;;;;;6165619;23;19920;-74
2022/08/17 10:44:23;;;;;;;;;;;17.80;99.90;;;;;;6190671;23;19926;-75
2022/08/17 10:47:15;;;;;;;;;;;17.80;99.90;;;;;;6190670;23;19991;-74
2022/08/17 10:49:52;;;;;;;;;;;17.80;99.90;;;;;;6182994;23;19974;-73
2022/08/17 10:52:20;;;;;;;;;;;17.90;99.90;;;;;;6212236;23;19923;-73
2022/08/17 10:54:47;;;;;;;;;;;18.00;99.90;;;;;;6220595;23;19920;-73
2022/08/17 10:57:39;;;;;;;;;;;18.00;99.90;;;;;;6195223;23;19920;-72
2022/08/17 11:00:17;;;;;;;;;;;18.20;99.90;;;;;;6212889;23;19919;-72
2022/08/17 11:02:48;;;;;;;;;;;18.30;99.90;;;;;;6220646;23;19970;-71
2022/08/17 11:05:22;;;;;;;;;;;18.50;99.90;;;;;;6220497;23;20227;-72
2022/08/17 11:08:05;;;;;;;;;;;18.60;99.90;;;;;;6194921;23;19928;-73
2022/08/17 11:10:41;;;;;;;;;;;18.70;99.90;;;;;;6195399;23;19966;-71
2022/08/17 11:13:14;;;;;;;;;;;18.80;99.90;;;;;;6220382;23;20389;-71
2022/08/17 11:15:44;;;;;;;;;;;18.90;99.90;;;;;;6195324;22;19920;-72
2022/08/17 11:18:10;;;;;;;;;;;19.00;99.90;;;;;;6195213;23;19920;-71
2022/08/17 11:20:53;;;;;;;;;;;19.00;99.90;;;;;;6219976;23;19926;-71
2022/08/17 11:23:48;;;;;;;;;;;19.10;99.90;;;;;;6220592;23;19919;-70
2022/08/17 11:26:28;;;;;;;;;;;19.20;99.90;;;;;;6089433;23;20277;-72
2022/08/17 11:28:57;;;;;;;;;;;19.20;99.90;;;;;;6220365;23;19943;-73
2022/08/17 11:31:29;;;;;;;;;;;19.20;99.90;;;;;;6220250;23;19919;-72
2022/08/17 11:34:01;;;;;;;;;;;19.20;99.90;;;;;;6220147;23;19927;-72
2022/08/17 11:36:32;;;;;;;;;;;19.30;99.90;;;;;;6247018;22;20227;-69
2022/08/17 11:39:21;;;;;;;;;;;19.30;99.90;;;;;;6194808;23;19923;-70
2022/08/17 11:41:49;;;;;;;;;;;19.40;99.90;;;;;;6195347;23;19981;-70
2022/08/17 11:44:15;;;;;;;;;;;19.40;99.90;;;;;;6220291;23;19977;-72
2022/08/17 11:52:49;;;;;;;;;;;19.60;99.90;;;;;;6219158;23;20123;-70
2022/08/17 11:55:27;;;;;;;;;;;19.60;99.90;;;;;;6219901;23;19920;-72
2022/08/17 11:58:13;;;;;;;;;;;19.70;99.90;;;;;;6246845;22;19919;-70
2022/08/17 12:00:48;;;;;;;;;;;19.70;99.90;;;;;;6192379;23;19927;-73
2022/08/17 12:03:38;;;;;;;;;;;19.80;99.90;;;;;;6246964;23;19919;-70
2022/08/17 12:06:16;;;;;;;;;;;19.80;99.90;;;;;;6219999;23;19926;-72
2022/08/17 12:08:46;;;;;;;;;;;19.90;99.90;;;;;;6246880;23;19920;-72
2022/08/17 12:11:29;;;;;;;;;;;19.90;99.90;;;;;;6219988;23;19926;-71
2022/08/17 12:13:56;;;;;;;;;;;19.90;99.90;;;;;;6220322;23;20301;-69
2022/08/17 12:16:23;;;;;;;;;;;19.90;99.90;;;;;;6219818;23;20231;-72
2022/08/17 12:18:53;;;;;;;;;;;19.90;99.90;;;;;;6195033;23;19927;-69
2022/08/17 12:21:37;;;;;;;;;;;19.90;99.90;;;;;;6219890;23;19920;-70
2022/08/17 12:24:13;;;;;;;;;;;19.90;99.90;;;;;;6219561;23;19958;-72
2022/08/17 12:26:42;;;;;;;;;;;19.80;99.90;;;;;;6219919;23;20271;-72
2022/08/17 12:29:14;;;;;;;;;;;19.90;99.90;;;;;;6220138;23;19924;-71
2022/08/17 12:31:43;;;;;;;;;;;19.90;99.90;;;;;;6194753;23;19927;-73
2022/08/17 12:34:31;;;;;;;;;;;19.90;99.90;;;;;;6194823;23;19930;-72
2022/08/17 12:36:59;;;;;;;;;;;19.90;99.90;;;;;;6219679;23;20017;-72
2022/08/17 12:39:25;;;;;;;;;;;19.90;99.90;;;;;;6194816;23;20002;-71
2022/08/17 12:41:52;;;;;;;;;;;20.00;99.90;;;;;;6194721;23;19927;-71
2022/08/17 12:44:19;;;;;;;;;;;20.10;99.90;;;;;;6194756;23;19923;-71
2022/08/17 12:46:58;;;;;;;;;;;20.30;99.90;;;;;;6219763;23;19927;-71
2022/08/17 12:49:31;;;;;;;;;;;20.40;99.90;;;;;;6219396;23;20002;-72
2022/08/17 12:52:16;;;;;;;;;;;20.60;99.90;;;;;;6219778;23;19920;-72
2022/08/17 12:54:56;;;;;;;;;;;20.70;99.90;;;;;;6246519;23;19920;-71
2022/08/17 12:57:26;;;;;;;;;;;20.90;99.90;;;;;;6246464;22;19955;-71
2022/08/17 12:59:54;;;;;;;;;;;20.90;99.90;;;;;;6194657;23;19926;-71
2022/08/17 13:02:22;;;;;;;;;;;20.90;99.90;;;;;;6195847;23;20323;-72
2022/08/17 13:04:48;;;;;;;;;;;20.90;99.90;;;;;;6221428;23;19923;-71
2022/08/17 13:07:25;;;;;;;;;;;21.00;99.90;;;;;;6221533;23;19977;-72
2022/08/17 13:09:51;;;;;;;;;;;21.10;99.90;;;;;;6196069;23;19923;-71
2022/08/17 13:12:24;;;;;;;;;;;21.20;99.90;;;;;;6221189;23;19970;-72
2022/08/17 13:14:50;;;;;;;;;;;21.10;99.90;;;;;;6221500;23;19920;-72
2022/08/17 13:17:24;;;;;;;;;;;21.10;99.90;;;;;;6248151;22;19920;-73
2022/08/17 13:19:50;;;;;;;;;;;21.00;99.90;;;;;;6221520;23;19924;-72
2022/08/17 13:22:17;;;;;;;;;;;20.90;99.90;;;;;;6196234;23;19942;-71
2022/08/17 13:24:51;;;;;;;;;;;20.90;99.90;;;;;;6221398;23;19970;-73
2022/08/17 13:27:18;;;;;;;;;;;20.90;99.90;;;;;;6221260;23;19920;-72
2022/08/17 13:29:44;;;;;;;;;;;20.80;99.90;;;;;;6221371;23;19920;-71
2022/08/17 13:32:10;;;;;;;;;;;20.80;99.90;;;;;;6196319;23;20042;-73
2022/08/17 13:34:42;;;;;;;;;;;20.90;99.90;;;;;;6248033;23;19919;-73
2022/08/17 13:37:25;;;;;;;;;;;20.80;99.90;;;;;;6221674;23;20334;-71
2022/08/17 13:39:52;;;;;;;;;;;20.80;99.90;;;;;;6221325;23;19978;-70
2022/08/17 13:42:33;;;;;;;;;;;20.80;99.90;;;;;;6196309;23;19923;-72
2022/08/17 13:44:59;;;;;;;;;;;20.70;99.90;;;;;;6223961;23;19923;-72
2022/08/17 13:47:25;;;;;;;;;;;20.80;99.90;;;;;;6220473;23;19943;-72
2022/08/17 13:49:51;;;;;;;;;;;20.80;99.90;;;;;;6221128;23;19951;-69
2022/08/17 13:52:36;;;;;;;;;;;20.80;99.90;;;;;;6220646;23;20247;-69
2022/08/17 13:55:04;;;;;;;;;;;20.80;99.90;;;;;;6221438;23;19958;-75
2022/08/17 13:57:29;;;;;;;;;;;21.00;99.90;;;;;;6195985;23;19920;-74
2022/08/17 14:00:15;;;;;;;;;;;21.10;99.90;;;;;;6196163;23;19919;-81
2022/08/17 14:02:43;;;;;;;;;;;21.20;99.90;;;;;;6218552;23;19927;-78
2022/08/17 14:05:09;;;;;;;;;;;21.30;99.90;;;;;;6219683;23;19965;-76
2022/08/17 14:07:36;;;;;;;;;;;21.50;99.90;;;;;;6219351;23;19923;-79
2022/08/17 14:10:08;;;;;;;;;;;21.70;99.90;;;;;;6194877;23;19986;-77
2022/08/17 14:12:36;;;;;;;;;;;21.80;99.90;;;;;;6219541;23;19919;-79
2022/08/17 14:15:02;;;;;;;;;;;22.00;99.90;;;;;;6219400;23;20342;-73
2022/08/17 14:17:30;;;;;;;;;;;22.10;99.90;;;;;;6219125;23;20401;-77
2022/08/17 14:19:56;;;;;;;;;;;22.20;99.90;;;;;;6219068;23;19915;-74
2022/08/17 14:22:30;;;;;;;;;;;22.40;99.90;;;;;;6219438;23;19919;-83
2022/08/17 14:24:56;;;;;;;;;;;22.50;99.90;;;;;;6219687;23;20327;-78
2022/08/17 14:27:23;;;;;;;;;;;22.30;99.90;;;;;;6218894;23;19970;-76
2022/08/17 14:29:48;;;;;;;;;;;22.30;99.90;;;;;;6193704;23;19926;-75
2022/08/17 14:32:33;;;;;;;;;;;22.20;99.90;;;;;;6194042;23;19920;-73
2022/08/17 14:34:59;;;;;;;;;;;22.10;99.90;;;;;;6194368;23;19919;-79
2022/08/17 14:37:31;;;;;;;;;;;22.10;99.90;;;;;;6194476;23;19946;-80
2022/08/17 14:40:08;;;;;;;;;;;22.00;99.90;;;;;;6193622;23;19920;-82
2022/08/17 14:42:34;;;;;;;;;;;21.90;99.90;;;;;;6194143;23;19973;-77
2022/08/17 14:45:04;;;;;;;;;;;21.50;99.90;;;;;;6218832;23;19916;-75
2022/08/17 14:47:34;;;;;;;;;;;21.30;99.90;;;;;;6218721;23;19915;-77
2022/08/17 14:50:01;;;;;;;;;;;21.10;99.90;;;;;;6218818;23;19926;-78
2022/08/17 14:52:27;;;;;;;;;;;20.90;99.90;;;;;;6218986;23;19986;-76
2022/08/17 14:54:53;;;;;;;;;;;20.60;99.90;;;;;;6219179;23;19985;-78
2022/08/17 14:57:19;;;;;;;;;;;20.60;99.90;;;;;;6193316;23;19926;-71
2022/08/17 14:59:45;;;;;;;;;;;20.20;99.90;;;;;;6194127;23;20319;-71
2022/08/17 15:02:11;;;;;;;;;;;20.10;99.90;;;;;;6246123;23;19920;-74
2022/08/17 15:05:09;;;;;;;;;;;20.10;99.90;;;;;;6245816;23;19920;-76
2022/08/17 15:07:37;;;;;;;;;;;20.10;99.90;;;;;;6192672;23;19920;-74
2022/08/17 15:10:05;;;;;;;;;;;20.10;99.90;;;;;;6219042;23;19916;-75
2022/08/17 15:22:48;;;;;;;;;;;19.80;99.90;;;;;;6260559;22;20317;-68